sensor_id;sensor_type;location;lat;lon;timestamp;P1;durP1;ratioP1;P2;durP2;ratioP2
10491;SDS011;5293;51.464;-2.566;2022-11-02T00:03:52;5.83;;;1.60;;
10491;SDS011;5293;51.464;-2.566;2022-11-02T00:06:18;9.37;;;1.40;;
10491;SDS011;5293;51.464;-2.566;2022-11-02T00:08:43;6.50;;;1.43;;
10491;SDS011;5293;51.464;-2.566;2022-11-02T00:11:09;8.47;;;1.53;;
10491;SDS011;5293;51.464;-2.566;2022-11-02T00:13:35;4.13;;;1.17;;
10491;SDS011;5293;51.464;-2.566;2022-11-02T00:16:01;10.00;;;1.23;;
10491;SDS011;5293;51.464;-2.566;2022-11-02T00:18:29;6.50;;;1.10;;
10491;SDS011;5293;51.464;-2.566;2022-11-02T00:20:56;10.20;;;1.57;;
10491;SDS011;5293;51.464;-2.566;2022-11-02T00:23:22;7.73;;;1.20;;
10491;SDS011;5293;51.464;-2.566;2022-11-02T00:25:48;9.13;;;2.10;;
10491;SDS011;5293;51.464;-2.566;2022-11-02T00:28:15;9.43;;;1.30;;
10491;SDS011;5293;51.464;-2.566;2022-11-02T00:30:41;3.10;;;1.30;;
10491;SDS011;5293;51.464;-2.566;2022-11-02T00:33:07;7.17;;;1.43;;
10491;SDS011;5293;51.464;-2.566;2022-11-02T00:35:33;6.13;;;1.60;;
10491;SDS011;5293;51.464;-2.566;2022-11-02T00:38:00;8.30;;;1.70;;
10491;SDS011;5293;51.464;-2.566;2022-11-02T00:40:25;5.90;;;1.33;;
10491;SDS011;5293;51.464;-2.566;2022-11-02T00:42:52;8.13;;;2.23;;
10491;SDS011;5293;51.464;-2.566;2022-11-02T00:45:17;7.73;;;1.50;;
10491;SDS011;5293;51.464;-2.566;2022-11-02T00:47:43;5.07;;;1.57;;
10491;SDS011;5293;51.464;-2.566;2022-11-02T00:50:09;4.57;;;1.30;;
10491;SDS011;5293;51.464;-2.566;2022-11-02T00:52:37;5.40;;;1.57;;
10491;SDS011;5293;51.464;-2.566;2022-11-02T00:55:04;8.33;;;1.93;;
10491;SDS011;5293;51.464;-2.566;2022-11-02T00:57:30;9.53;;;1.87;;
10491;SDS011;5293;51.464;-2.566;2022-11-02T00:59:56;5.77;;;1.23;;
10491;SDS011;5293;51.464;-2.566;2022-11-02T01:02:21;1.97;;;1.27;;
10491;SDS011;5293;51.464;-2.566;2022-11-02T01:04:47;7.03;;;1.33;;
10491;SDS011;5293;51.464;-2.566;2022-11-02T01:07:13;2.27;;;0.83;;
10491;SDS011;5293;51.464;-2.566;2022-11-02T01:09:38;3.53;;;1.03;;
10491;SDS011;5293;51.464;-2.566;2022-11-02T01:12:04;3.90;;;1.40;;
10491;SDS011;5293;51.464;-2.566;2022-11-02T01:14:30;8.60;;;1.50;;
10491;SDS011;5293;51.464;-2.566;2022-11-02T01:16:56;4.07;;;1.33;;
10491;SDS011;5293;51.464;-2.566;2022-11-02T01:19:22;3.37;;;1.03;;
10491;SDS011;5293;51.464;-2.566;2022-11-02T01:21:48;7.73;;;1.17;;
10491;SDS011;5293;51.464;-2.566;2022-11-02T01:24:14;6.23;;;1.30;;
10491;SDS011;5293;51.464;-2.566;2022-11-02T01:26:40;8.43;;;1.53;;
10491;SDS011;5293;51.464;-2.566;2022-11-02T01:29:05;13.13;;;1.47;;
10491;SDS011;5293;51.464;-2.566;2022-11-02T01:31:31;10.57;;;1.33;;
10491;SDS011;5293;51.464;-2.566;2022-11-02T01:33:57;6.20;;;1.10;;
10491;SDS011;5293;51.464;-2.566;2022-11-02T01:36:22;4.80;;;1.23;;
10491;SDS011;5293;51.464;-2.566;2022-11-02T01:38:48;6.20;;;0.80;;
10491;SDS011;5293;51.464;-2.566;2022-11-02T01:41:15;3.17;;;1.00;;
10491;SDS011;5293;51.464;-2.566;2022-11-02T01:43:44;3.10;;;1.10;;
10491;SDS011;5293;51.464;-2.566;2022-11-02T01:46:13;4.83;;;1.50;;
10491;SDS011;5293;51.464;-2.566;2022-11-02T01:48:57;12.13;;;1.27;;
10491;SDS011;5293;51.464;-2.566;2022-11-02T01:51:31;4.80;;;1.10;;
10491;SDS011;5293;51.464;-2.566;2022-11-02T01:54:13;2.33;;;0.80;;
10491;SDS011;5293;51.464;-2.566;2022-11-02T01:56:43;3.57;;;1.00;;
10491;SDS011;5293;51.464;-2.566;2022-11-02T01:59:14;6.50;;;1.07;;
10491;SDS011;5293;51.464;-2.566;2022-11-02T02:01:43;6.10;;;1.10;;
10491;SDS011;5293;51.464;-2.566;2022-11-02T02:04:09;3.80;;;0.97;;
10491;SDS011;5293;51.464;-2.566;2022-11-02T02:06:37;8.83;;;1.53;;
10491;SDS011;5293;51.464;-2.566;2022-11-02T02:09:04;5.40;;;1.13;;
10491;SDS011;5293;51.464;-2.566;2022-11-02T02:11:32;7.90;;;1.20;;
10491;SDS011;5293;51.464;-2.566;2022-11-02T02:14:12;3.10;;;1.00;;
10491;SDS011;5293;51.464;-2.566;2022-11-02T02:19:21;4.20;;;1.27;;
10491;SDS011;5293;51.464;-2.566;2022-11-02T02:24:47;11.30;;;1.97;;
10491;SDS011;5293;51.464;-2.566;2022-11-02T02:27:45;13.53;;;1.40;;
10491;SDS011;5293;51.464;-2.566;2022-11-02T02:30:13;5.23;;;1.67;;
10491;SDS011;5293;51.464;-2.566;2022-11-02T02:35:14;10.00;;;1.73;;
10491;SDS011;5293;51.464;-2.566;2022-11-02T02:37:58;12.13;;;1.67;;
10491;SDS011;5293;51.464;-2.566;2022-11-02T02:40:36;5.63;;;1.47;;
10491;SDS011;5293;51.464;-2.566;2022-11-02T02:43:07;8.83;;;1.40;;
10491;SDS011;5293;51.464;-2.566;2022-11-02T02:45:36;7.43;;;1.70;;
10491;SDS011;5293;51.464;-2.566;2022-11-02T02:48:13;7.20;;;1.60;;
10491;SDS011;5293;51.464;-2.566;2022-11-02T02:50:48;7.27;;;1.70;;
10491;SDS011;5293;51.464;-2.566;2022-11-02T02:53:14;7.07;;;1.53;;
10491;SDS011;5293;51.464;-2.566;2022-11-02T02:55:44;3.60;;;1.00;;
10491;SDS011;5293;51.464;-2.566;2022-11-02T02:58:23;3.90;;;1.20;;
10491;SDS011;5293;51.464;-2.566;2022-11-02T03:00:51;5.97;;;1.27;;
10491;SDS011;5293;51.464;-2.566;2022-11-02T03:03:19;8.00;;;1.20;;
10491;SDS011;5293;51.464;-2.566;2022-11-02T03:05:57;9.73;;;1.40;;
10491;SDS011;5293;51.464;-2.566;2022-11-02T03:08:25;4.43;;;1.67;;
10491;SDS011;5293;51.464;-2.566;2022-11-02T03:10:58;4.70;;;1.30;;
10491;SDS011;5293;51.464;-2.566;2022-11-02T03:16:30;9.37;;;1.40;;
10491;SDS011;5293;51.464;-2.566;2022-11-02T03:21:48;4.83;;;1.00;;
10491;SDS011;5293;51.464;-2.566;2022-11-02T03:24:26;7.63;;;1.70;;
10491;SDS011;5293;51.464;-2.566;2022-11-02T03:26:59;7.50;;;1.43;;
10491;SDS011;5293;51.464;-2.566;2022-11-02T03:29:52;12.13;;;1.60;;
10491;SDS011;5293;51.464;-2.566;2022-11-02T03:32:40;9.57;;;1.50;;
10491;SDS011;5293;51.464;-2.566;2022-11-02T03:35:20;6.50;;;1.30;;
10491;SDS011;5293;51.464;-2.566;2022-11-02T03:38:09;4.67;;;1.27;;
10491;SDS011;5293;51.464;-2.566;2022-11-02T03:40:45;5.23;;;1.47;;
10491;SDS011;5293;51.464;-2.566;2022-11-02T03:43:14;1.30;;;0.97;;
10491;SDS011;5293;51.464;-2.566;2022-11-02T03:45:43;10.63;;;1.53;;
10491;SDS011;5293;51.464;-2.566;2022-11-02T03:48:15;3.23;;;1.10;;
10491;SDS011;5293;51.464;-2.566;2022-11-02T03:50:43;7.23;;;1.63;;
10491;SDS011;5293;51.464;-2.566;2022-11-02T03:53:14;7.23;;;1.47;;
10491;SDS011;5293;51.464;-2.566;2022-11-02T03:55:44;4.53;;;1.33;;
10491;SDS011;5293;51.464;-2.566;2022-11-02T03:58:13;4.63;;;1.30;;
10491;SDS011;5293;51.464;-2.566;2022-11-02T04:00:43;4.50;;;1.30;;
10491;SDS011;5293;51.464;-2.566;2022-11-02T04:03:18;3.30;;;0.90;;
10491;SDS011;5293;51.464;-2.566;2022-11-02T04:05:46;5.77;;;1.40;;
10491;SDS011;5293;51.464;-2.566;2022-11-02T04:08:13;6.57;;;1.40;;
10491;SDS011;5293;51.464;-2.566;2022-11-02T04:10:46;8.23;;;1.73;;
10491;SDS011;5293;51.464;-2.566;2022-11-02T04:13:31;7.40;;;1.37;;
10491;SDS011;5293;51.464;-2.566;2022-11-02T04:16:15;7.63;;;1.40;;
10491;SDS011;5293;51.464;-2.566;2022-11-02T04:18:41;3.53;;;1.03;;
10491;SDS011;5293;51.464;-2.566;2022-11-02T04:21:26;4.13;;;1.20;;
10491;SDS011;5293;51.464;-2.566;2022-11-02T04:23:52;9.10;;;1.40;;
10491;SDS011;5293;51.464;-2.566;2022-11-02T04:26:36;7.97;;;0.93;;
10491;SDS011;5293;51.464;-2.566;2022-11-02T04:29:02;6.53;;;1.10;;
10491;SDS011;5293;51.464;-2.566;2022-11-02T04:31:28;3.30;;;1.27;;
10491;SDS011;5293;51.464;-2.566;2022-11-02T04:33:54;4.47;;;1.17;;
10491;SDS011;5293;51.464;-2.566;2022-11-02T04:36:22;2.73;;;1.10;;
10491;SDS011;5293;51.464;-2.566;2022-11-02T04:38:48;1.30;;;0.90;;
10491;SDS011;5293;51.464;-2.566;2022-11-02T04:41:14;6.33;;;1.00;;
10491;SDS011;5293;51.464;-2.566;2022-11-02T04:44:00;2.23;;;1.00;;
10491;SDS011;5293;51.464;-2.566;2022-11-02T04:46:27;4.27;;;1.00;;
10491;SDS011;5293;51.464;-2.566;2022-11-02T04:48:55;5.57;;;1.27;;
10491;SDS011;5293;51.464;-2.566;2022-11-02T04:51:21;4.50;;;1.00;;
10491;SDS011;5293;51.464;-2.566;2022-11-02T04:53:49;6.03;;;1.37;;
10491;SDS011;5293;51.464;-2.566;2022-11-02T04:56:15;6.53;;;1.10;;
10491;SDS011;5293;51.464;-2.566;2022-11-02T04:58:41;5.43;;;1.07;;
10491;SDS011;5293;51.464;-2.566;2022-11-02T05:01:07;6.07;;;1.33;;
10491;SDS011;5293;51.464;-2.566;2022-11-02T05:03:38;7.70;;;1.47;;
10491;SDS011;5293;51.464;-2.566;2022-11-02T05:06:04;5.87;;;1.20;;
10491;SDS011;5293;51.464;-2.566;2022-11-02T05:08:30;4.50;;;1.50;;
10491;SDS011;5293;51.464;-2.566;2022-11-02T05:10:56;10.53;;;1.40;;
10491;SDS011;5293;51.464;-2.566;2022-11-02T05:13:22;8.27;;;1.07;;
10491;SDS011;5293;51.464;-2.566;2022-11-02T05:15:49;8.17;;;1.10;;
10491;SDS011;5293;51.464;-2.566;2022-11-02T05:18:15;4.70;;;1.33;;
10491;SDS011;5293;51.464;-2.566;2022-11-02T05:20:41;12.00;;;1.10;;
10491;SDS011;5293;51.464;-2.566;2022-11-02T05:23:07;10.87;;;1.27;;
10491;SDS011;5293;51.464;-2.566;2022-11-02T05:25:32;5.67;;;0.93;;
10491;SDS011;5293;51.464;-2.566;2022-11-02T05:27:58;5.03;;;1.23;;
10491;SDS011;5293;51.464;-2.566;2022-11-02T05:30:27;10.87;;;2.03;;
10491;SDS011;5293;51.464;-2.566;2022-11-02T05:32:55;6.87;;;1.47;;
10491;SDS011;5293;51.464;-2.566;2022-11-02T05:35:23;4.47;;;1.30;;
10491;SDS011;5293;51.464;-2.566;2022-11-02T05:37:49;4.40;;;1.23;;
10491;SDS011;5293;51.464;-2.566;2022-11-02T05:40:15;11.30;;;1.50;;
10491;SDS011;5293;51.464;-2.566;2022-11-02T05:42:40;2.27;;;1.20;;
10491;SDS011;5293;51.464;-2.566;2022-11-02T05:45:06;5.90;;;1.47;;
10491;SDS011;5293;51.464;-2.566;2022-11-02T05:47:32;4.37;;;1.30;;
10491;SDS011;5293;51.464;-2.566;2022-11-02T05:49:58;7.13;;;2.27;;
10491;SDS011;5293;51.464;-2.566;2022-11-02T05:52:24;10.13;;;1.30;;
10491;SDS011;5293;51.464;-2.566;2022-11-02T05:54:49;3.50;;;1.20;;
10491;SDS011;5293;51.464;-2.566;2022-11-02T05:57:15;4.23;;;1.00;;
10491;SDS011;5293;51.464;-2.566;2022-11-02T05:59:41;5.13;;;1.10;;
10491;SDS011;5293;51.464;-2.566;2022-11-02T06:02:07;4.93;;;1.17;;
10491;SDS011;5293;51.464;-2.566;2022-11-02T06:04:32;8.43;;;1.77;;
10491;SDS011;5293;51.464;-2.566;2022-11-02T06:06:58;5.83;;;1.27;;
10491;SDS011;5293;51.464;-2.566;2022-11-02T06:09:23;10.33;;;1.50;;
10491;SDS011;5293;51.464;-2.566;2022-11-02T06:11:49;10.60;;;1.50;;
10491;SDS011;5293;51.464;-2.566;2022-11-02T06:14:15;6.53;;;1.40;;
10491;SDS011;5293;51.464;-2.566;2022-11-02T06:16:40;7.93;;;1.60;;
10491;SDS011;5293;51.464;-2.566;2022-11-02T06:19:06;6.10;;;1.93;;
10491;SDS011;5293;51.464;-2.566;2022-11-02T06:21:32;10.83;;;2.00;;
10491;SDS011;5293;51.464;-2.566;2022-11-02T06:23:57;3.27;;;1.40;;
10491;SDS011;5293;51.464;-2.566;2022-11-02T06:26:23;4.13;;;1.50;;
10491;SDS011;5293;51.464;-2.566;2022-11-02T06:28:49;7.07;;;1.50;;
10491;SDS011;5293;51.464;-2.566;2022-11-02T06:31:14;4.63;;;1.80;;
10491;SDS011;5293;51.464;-2.566;2022-11-02T06:33:41;4.20;;;1.47;;
10491;SDS011;5293;51.464;-2.566;2022-11-02T06:36:09;4.27;;;1.30;;
10491;SDS011;5293;51.464;-2.566;2022-11-02T06:38:34;8.67;;;2.07;;
10491;SDS011;5293;51.464;-2.566;2022-11-02T06:41:01;4.70;;;1.03;;
10491;SDS011;5293;51.464;-2.566;2022-11-02T06:43:28;8.43;;;1.37;;
10491;SDS011;5293;51.464;-2.566;2022-11-02T06:45:54;3.83;;;1.40;;
10491;SDS011;5293;51.464;-2.566;2022-11-02T06:48:21;5.40;;;1.60;;
10491;SDS011;5293;51.464;-2.566;2022-11-02T06:50:47;7.53;;;1.87;;
10491;SDS011;5293;51.464;-2.566;2022-11-02T06:53:13;9.67;;;1.80;;
10491;SDS011;5293;51.464;-2.566;2022-11-02T06:55:38;6.73;;;1.70;;
10491;SDS011;5293;51.464;-2.566;2022-11-02T06:58:04;6.87;;;1.50;;
10491;SDS011;5293;51.464;-2.566;2022-11-02T07:00:31;10.03;;;1.77;;
10491;SDS011;5293;51.464;-2.566;2022-11-02T07:03:00;3.80;;;1.17;;
10491;SDS011;5293;51.464;-2.566;2022-11-02T07:05:28;6.67;;;1.33;;
10491;SDS011;5293;51.464;-2.566;2022-11-02T07:07:54;11.33;;;1.77;;
10491;SDS011;5293;51.464;-2.566;2022-11-02T07:10:20;7.00;;;1.30;;
10491;SDS011;5293;51.464;-2.566;2022-11-02T07:12:46;11.50;;;1.80;;
10491;SDS011;5293;51.464;-2.566;2022-11-02T07:15:12;10.67;;;1.47;;
10491;SDS011;5293;51.464;-2.566;2022-11-02T07:17:38;10.57;;;1.43;;
10491;SDS011;5293;51.464;-2.566;2022-11-02T07:20:04;6.57;;;1.70;;
10491;SDS011;5293;51.464;-2.566;2022-11-02T07:22:30;11.33;;;1.70;;
10491;SDS011;5293;51.464;-2.566;2022-11-02T07:24:56;8.07;;;1.50;;
10491;SDS011;5293;51.464;-2.566;2022-11-02T07:27:22;20.30;;;2.37;;
10491;SDS011;5293;51.464;-2.566;2022-11-02T07:29:47;13.37;;;3.10;;
10491;SDS011;5293;51.464;-2.566;2022-11-02T07:32:13;10.43;;;1.50;;
10491;SDS011;5293;51.464;-2.566;2022-11-02T07:34:39;13.37;;;2.17;;
10491;SDS011;5293;51.464;-2.566;2022-11-02T07:37:05;3.83;;;1.90;;
10491;SDS011;5293;51.464;-2.566;2022-11-02T07:39:30;7.87;;;1.53;;
10491;SDS011;5293;51.464;-2.566;2022-11-02T07:41:56;10.47;;;1.50;;
10491;SDS011;5293;51.464;-2.566;2022-11-02T07:44:21;11.50;;;2.10;;
10491;SDS011;5293;51.464;-2.566;2022-11-02T07:46:47;7.93;;;1.90;;
10491;SDS011;5293;51.464;-2.566;2022-11-02T07:49:13;11.73;;;1.97;;
10491;SDS011;5293;51.464;-2.566;2022-11-02T07:51:38;5.47;;;1.73;;
10491;SDS011;5293;51.464;-2.566;2022-11-02T07:54:04;3.27;;;1.47;;
10491;SDS011;5293;51.464;-2.566;2022-11-02T07:56:30;8.03;;;1.50;;
10491;SDS011;5293;51.464;-2.566;2022-11-02T07:58:55;5.60;;;1.40;;
10491;SDS011;5293;51.464;-2.566;2022-11-02T08:01:21;13.17;;;2.93;;
10491;SDS011;5293;51.464;-2.566;2022-11-02T08:03:47;7.67;;;2.37;;
10491;SDS011;5293;51.464;-2.566;2022-11-02T08:06:13;10.30;;;1.60;;
10491;SDS011;5293;51.464;-2.566;2022-11-02T08:08:38;8.90;;;1.87;;
10491;SDS011;5293;51.464;-2.566;2022-11-02T08:11:05;11.00;;;1.80;;
10491;SDS011;5293;51.464;-2.566;2022-11-02T08:13:32;6.87;;;2.23;;
10491;SDS011;5293;51.464;-2.566;2022-11-02T08:15:58;8.93;;;1.97;;
10491;SDS011;5293;51.464;-2.566;2022-11-02T08:18:24;5.03;;;1.37;;
10491;SDS011;5293;51.464;-2.566;2022-11-02T08:20:51;15.73;;;2.70;;
10491;SDS011;5293;51.464;-2.566;2022-11-02T08:23:19;15.37;;;3.23;;
10491;SDS011;5293;51.464;-2.566;2022-11-02T08:25:46;12.20;;;1.60;;
10491;SDS011;5293;51.464;-2.566;2022-11-02T08:28:20;9.10;;;1.97;;
10491;SDS011;5293;51.464;-2.566;2022-11-02T08:30:50;11.43;;;2.23;;
10491;SDS011;5293;51.464;-2.566;2022-11-02T08:33:16;10.40;;;2.23;;
10491;SDS011;5293;51.464;-2.566;2022-11-02T08:35:43;12.53;;;2.00;;
10491;SDS011;5293;51.464;-2.566;2022-11-02T08:38:10;14.10;;;2.90;;
10491;SDS011;5293;51.464;-2.566;2022-11-02T08:40:36;12.10;;;2.77;;
10491;SDS011;5293;51.464;-2.566;2022-11-02T08:43:06;10.60;;;2.03;;
10491;SDS011;5293;51.464;-2.566;2022-11-02T08:45:33;16.63;;;2.00;;
10491;SDS011;5293;51.464;-2.566;2022-11-02T08:48:00;3.20;;;1.63;;
10491;SDS011;5293;51.464;-2.566;2022-11-02T08:50:35;5.27;;;1.20;;
10491;SDS011;5293;51.464;-2.566;2022-11-02T08:53:01;9.07;;;1.90;;
10491;SDS011;5293;51.464;-2.566;2022-11-02T08:55:27;9.77;;;2.03;;
10491;SDS011;5293;51.464;-2.566;2022-11-02T08:57:53;7.67;;;2.00;;
10491;SDS011;5293;51.464;-2.566;2022-11-02T09:00:21;13.37;;;2.47;;
10491;SDS011;5293;51.464;-2.566;2022-11-02T09:05:25;16.90;;;2.53;;
10491;SDS011;5293;51.464;-2.566;2022-11-02T09:07:57;9.13;;;2.10;;
10491;SDS011;5293;51.464;-2.566;2022-11-02T09:10:25;11.80;;;2.00;;
10491;SDS011;5293;51.464;-2.566;2022-11-02T09:12:52;14.23;;;2.37;;
10491;SDS011;5293;51.464;-2.566;2022-11-02T09:15:18;11.20;;;2.00;;
10491;SDS011;5293;51.464;-2.566;2022-11-02T09:17:47;8.27;;;1.60;;
10491;SDS011;5293;51.464;-2.566;2022-11-02T09:20:16;7.77;;;1.80;;
10491;SDS011;5293;51.464;-2.566;2022-11-02T09:22:43;7.00;;;1.83;;
10491;SDS011;5293;51.464;-2.566;2022-11-02T09:25:09;11.93;;;2.00;;
10491;SDS011;5293;51.464;-2.566;2022-11-02T09:27:35;8.90;;;1.97;;
10491;SDS011;5293;51.464;-2.566;2022-11-02T09:30:01;8.07;;;1.87;;
10491;SDS011;5293;51.464;-2.566;2022-11-02T09:32:28;9.63;;;2.00;;
10491;SDS011;5293;51.464;-2.566;2022-11-02T09:34:57;10.17;;;1.63;;
10491;SDS011;5293;51.464;-2.566;2022-11-02T09:37:32;8.90;;;1.50;;
10491;SDS011;5293;51.464;-2.566;2022-11-02T09:39:58;10.40;;;3.73;;
10491;SDS011;5293;51.464;-2.566;2022-11-02T09:42:26;5.40;;;1.73;;
10491;SDS011;5293;51.464;-2.566;2022-11-02T09:45:17;11.70;;;1.90;;
10491;SDS011;5293;51.464;-2.566;2022-11-02T09:47:46;14.20;;;2.70;;
10491;SDS011;5293;51.464;-2.566;2022-11-02T09:50:16;7.37;;;1.93;;
10491;SDS011;5293;51.464;-2.566;2022-11-02T09:52:46;9.13;;;2.53;;
10491;SDS011;5293;51.464;-2.566;2022-11-02T09:55:51;7.97;;;2.10;;
10491;SDS011;5293;51.464;-2.566;2022-11-02T09:58:19;4.93;;;1.20;;
10491;SDS011;5293;51.464;-2.566;2022-11-02T10:00:50;11.50;;;1.73;;
10491;SDS011;5293;51.464;-2.566;2022-11-02T10:06:13;12.30;;;1.97;;
10491;SDS011;5293;51.464;-2.566;2022-11-02T10:11:29;10.13;;;1.70;;
10491;SDS011;5293;51.464;-2.566;2022-11-02T10:14:17;4.57;;;1.23;;
10491;SDS011;5293;51.464;-2.566;2022-11-02T10:16:52;15.17;;;2.00;;
10491;SDS011;5293;51.464;-2.566;2022-11-02T10:19:23;14.20;;;2.53;;
10491;SDS011;5293;51.464;-2.566;2022-11-02T10:21:51;15.83;;;3.83;;
10491;SDS011;5293;51.464;-2.566;2022-11-02T10:24:22;7.83;;;1.90;;
10491;SDS011;5293;51.464;-2.566;2022-11-02T10:27:00;12.67;;;3.13;;
10491;SDS011;5293;51.464;-2.566;2022-11-02T10:29:38;12.10;;;1.90;;
10491;SDS011;5293;51.464;-2.566;2022-11-02T10:32:25;12.83;;;1.87;;
10491;SDS011;5293;51.464;-2.566;2022-11-02T10:34:51;6.10;;;2.33;;
10491;SDS011;5293;51.464;-2.566;2022-11-02T10:46:06;15.23;;;2.70;;
10491;SDS011;5293;51.464;-2.566;2022-11-02T10:51:34;7.30;;;2.07;;
10491;SDS011;5293;51.464;-2.566;2022-11-02T10:54:00;15.20;;;2.17;;
10491;SDS011;5293;51.464;-2.566;2022-11-02T10:56:29;11.50;;;2.30;;
10491;SDS011;5293;51.464;-2.566;2022-11-02T10:59:01;11.30;;;2.53;;
10491;SDS011;5293;51.464;-2.566;2022-11-02T11:01:43;14.43;;;2.37;;
10491;SDS011;5293;51.464;-2.566;2022-11-02T11:04:27;13.17;;;2.50;;
10491;SDS011;5293;51.464;-2.566;2022-11-02T11:06:54;11.40;;;2.00;;
10491;SDS011;5293;51.464;-2.566;2022-11-02T11:09:28;14.33;;;2.60;;
10491;SDS011;5293;51.464;-2.566;2022-11-02T11:12:01;7.83;;;2.27;;
10491;SDS011;5293;51.464;-2.566;2022-11-02T11:14:43;13.97;;;3.07;;
10491;SDS011;5293;51.464;-2.566;2022-11-02T11:17:14;14.77;;;3.00;;
10491;SDS011;5293;51.464;-2.566;2022-11-02T11:19:53;13.30;;;2.10;;
10491;SDS011;5293;51.464;-2.566;2022-11-02T11:27:46;14.07;;;2.50;;
10491;SDS011;5293;51.464;-2.566;2022-11-02T11:30:29;15.70;;;3.10;;
10491;SDS011;5293;51.464;-2.566;2022-11-02T11:32:56;37.63;;;6.13;;
10491;SDS011;5293;51.464;-2.566;2022-11-02T11:35:24;16.07;;;2.13;;
10491;SDS011;5293;51.464;-2.566;2022-11-02T11:38:22;17.17;;;3.03;;
10491;SDS011;5293;51.464;-2.566;2022-11-02T11:40:57;12.57;;;3.13;;
10491;SDS011;5293;51.464;-2.566;2022-11-02T11:43:25;16.33;;;2.97;;
10491;SDS011;5293;51.464;-2.566;2022-11-02T11:50:58;15.47;;;2.40;;
10491;SDS011;5293;51.464;-2.566;2022-11-02T11:53:27;9.83;;;2.30;;
10491;SDS011;5293;51.464;-2.566;2022-11-02T11:55:56;10.53;;;2.00;;
10491;SDS011;5293;51.464;-2.566;2022-11-02T11:58:28;8.13;;;2.57;;
10491;SDS011;5293;51.464;-2.566;2022-11-02T12:03:52;14.07;;;3.23;;
10491;SDS011;5293;51.464;-2.566;2022-11-02T12:15:01;12.07;;;2.80;;
10491;SDS011;5293;51.464;-2.566;2022-11-02T12:32:17;11.00;;;2.50;;
10491;SDS011;5293;51.464;-2.566;2022-11-02T12:49:06;6.17;;;2.07;;
10491;SDS011;5293;51.464;-2.566;2022-11-02T12:51:45;11.33;;;2.80;;
10491;SDS011;5293;51.464;-2.566;2022-11-02T12:54:19;11.57;;;2.43;;
10491;SDS011;5293;51.464;-2.566;2022-11-02T12:56:49;11.30;;;2.57;;
10491;SDS011;5293;51.464;-2.566;2022-11-02T12:59:21;12.80;;;2.87;;
10491;SDS011;5293;51.464;-2.566;2022-11-02T13:01:48;13.83;;;2.37;;
10491;SDS011;5293;51.464;-2.566;2022-11-02T13:04:19;14.40;;;2.77;;
10491;SDS011;5293;51.464;-2.566;2022-11-02T13:07:12;14.10;;;2.20;;
10491;SDS011;5293;51.464;-2.566;2022-11-02T13:12:30;16.87;;;2.33;;
10491;SDS011;5293;51.464;-2.566;2022-11-02T13:15:00;12.40;;;2.43;;
10491;SDS011;5293;51.464;-2.566;2022-11-02T13:17:49;11.00;;;1.70;;
10491;SDS011;5293;51.464;-2.566;2022-11-02T13:20:40;14.37;;;2.60;;
10491;SDS011;5293;51.464;-2.566;2022-11-02T13:25:49;16.27;;;2.97;;
10491;SDS011;5293;51.464;-2.566;2022-11-02T13:28:22;16.33;;;1.90;;
10491;SDS011;5293;51.464;-2.566;2022-11-02T13:30:52;8.60;;;2.17;;
10491;SDS011;5293;51.464;-2.566;2022-11-02T13:33:20;11.43;;;2.47;;
10491;SDS011;5293;51.464;-2.566;2022-11-02T13:35:52;10.73;;;2.70;;
10491;SDS011;5293;51.464;-2.566;2022-11-02T13:44:05;15.00;;;2.37;;
10491;SDS011;5293;51.464;-2.566;2022-11-02T13:46:40;10.33;;;2.20;;
10491;SDS011;5293;51.464;-2.566;2022-11-02T13:49:25;14.27;;;2.67;;
10491;SDS011;5293;51.464;-2.566;2022-11-02T13:52:02;13.17;;;2.53;;
10491;SDS011;5293;51.464;-2.566;2022-11-02T13:54:40;13.60;;;2.03;;
10491;SDS011;5293;51.464;-2.566;2022-11-02T13:57:21;11.00;;;2.27;;
10491;SDS011;5293;51.464;-2.566;2022-11-02T14:00:04;19.20;;;2.43;;
10491;SDS011;5293;51.464;-2.566;2022-11-02T14:03:42;15.17;;;2.87;;
10491;SDS011;5293;51.464;-2.566;2022-11-02T14:05:55;11.07;;;2.50;;
10491;SDS011;5293;51.464;-2.566;2022-11-02T14:08:33;17.77;;;2.77;;
10491;SDS011;5293;51.464;-2.566;2022-11-02T14:24:50;9.73;;;2.37;;
10491;SDS011;5293;51.464;-2.566;2022-11-02T14:40:23;15.37;;;2.90;;
10491;SDS011;5293;51.464;-2.566;2022-11-02T14:48:25;7.00;;;1.83;;
10491;SDS011;5293;51.464;-2.566;2022-11-02T14:51:02;11.80;;;2.63;;
10491;SDS011;5293;51.464;-2.566;2022-11-02T14:53:31;9.97;;;2.23;;
10491;SDS011;5293;51.464;-2.566;2022-11-02T14:56:00;12.50;;;2.10;;
10491;SDS011;5293;51.464;-2.566;2022-11-02T14:58:29;11.10;;;2.20;;
10491;SDS011;5293;51.464;-2.566;2022-11-02T15:01:01;10.07;;;2.57;;
10491;SDS011;5293;51.464;-2.566;2022-11-02T15:03:36;12.73;;;2.83;;
10491;SDS011;5293;51.464;-2.566;2022-11-02T15:06:04;9.03;;;2.10;;
10491;SDS011;5293;51.464;-2.566;2022-11-02T15:09:01;12.33;;;2.50;;
10491;SDS011;5293;51.464;-2.566;2022-11-02T15:14:29;17.47;;;3.20;;
10491;SDS011;5293;51.464;-2.566;2022-11-02T15:25:05;10.17;;;2.80;;
10491;SDS011;5293;51.464;-2.566;2022-11-02T15:27:42;12.57;;;2.43;;
10491;SDS011;5293;51.464;-2.566;2022-11-02T15:30:12;12.07;;;2.37;;
10491;SDS011;5293;51.464;-2.566;2022-11-02T15:32:43;12.40;;;3.10;;
10491;SDS011;5293;51.464;-2.566;2022-11-02T15:35:22;14.97;;;2.70;;
10491;SDS011;5293;51.464;-2.566;2022-11-02T15:37:51;9.17;;;2.13;;
10491;SDS011;5293;51.464;-2.566;2022-11-02T15:40:25;14.60;;;2.50;;
10491;SDS011;5293;51.464;-2.566;2022-11-02T15:54:22;9.27;;;3.03;;
10491;SDS011;5293;51.464;-2.566;2022-11-02T16:04:47;15.20;;;3.07;;
10491;SDS011;5293;51.464;-2.566;2022-11-02T16:07:25;16.40;;;2.77;;
10491;SDS011;5293;51.464;-2.566;2022-11-02T16:09:52;14.27;;;2.77;;
10491;SDS011;5293;51.464;-2.566;2022-11-02T16:12:19;11.80;;;2.53;;
10491;SDS011;5293;51.464;-2.566;2022-11-02T16:15:28;10.13;;;2.27;;
10491;SDS011;5293;51.464;-2.566;2022-11-02T16:17:41;14.13;;;3.03;;
10491;SDS011;5293;51.464;-2.566;2022-11-02T16:20:16;13.07;;;2.87;;
10491;SDS011;5293;51.464;-2.566;2022-11-02T16:25:30;21.57;;;3.90;;
10491;SDS011;5293;51.464;-2.566;2022-11-02T16:33:40;15.80;;;2.93;;
10491;SDS011;5293;51.464;-2.566;2022-11-02T16:36:12;12.53;;;2.17;;
10491;SDS011;5293;51.464;-2.566;2022-11-02T16:38:45;14.13;;;2.17;;
10491;SDS011;5293;51.464;-2.566;2022-11-02T16:41:15;9.50;;;1.70;;
10491;SDS011;5293;51.464;-2.566;2022-11-02T16:43:41;15.00;;;2.47;;
10491;SDS011;5293;51.464;-2.566;2022-11-02T16:46:08;6.53;;;1.90;;
10491;SDS011;5293;51.464;-2.566;2022-11-02T16:48:40;9.73;;;2.33;;
10491;SDS011;5293;51.464;-2.566;2022-11-02T16:51:27;11.57;;;2.07;;
10491;SDS011;5293;51.464;-2.566;2022-11-02T16:53:53;7.20;;;1.93;;
10491;SDS011;5293;51.464;-2.566;2022-11-02T16:58:52;6.20;;;2.10;;
10491;SDS011;5293;51.464;-2.566;2022-11-02T17:01:25;10.37;;;2.37;;
10491;SDS011;5293;51.464;-2.566;2022-11-02T17:03:53;13.63;;;2.67;;
10491;SDS011;5293;51.464;-2.566;2022-11-02T17:06:19;13.53;;;2.53;;
10491;SDS011;5293;51.464;-2.566;2022-11-02T17:08:54;10.00;;;2.27;;
10491;SDS011;5293;51.464;-2.566;2022-11-02T17:11:20;9.07;;;2.30;;
10491;SDS011;5293;51.464;-2.566;2022-11-02T17:13:50;17.00;;;2.80;;
10491;SDS011;5293;51.464;-2.566;2022-11-02T17:16:18;12.77;;;2.93;;
10491;SDS011;5293;51.464;-2.566;2022-11-02T17:18:44;13.50;;;3.17;;
10491;SDS011;5293;51.464;-2.566;2022-11-02T17:28:59;10.63;;;3.27;;
10491;SDS011;5293;51.464;-2.566;2022-11-02T17:33:58;14.50;;;2.90;;
10491;SDS011;5293;51.464;-2.566;2022-11-02T17:36:26;18.83;;;3.30;;
10491;SDS011;5293;51.464;-2.566;2022-11-02T17:38:53;20.93;;;3.13;;
10491;SDS011;5293;51.464;-2.566;2022-11-02T17:41:19;10.67;;;2.90;;
10491;SDS011;5293;51.464;-2.566;2022-11-02T17:44:07;15.80;;;3.27;;
10491;SDS011;5293;51.464;-2.566;2022-11-02T17:46:37;15.33;;;3.13;;
10491;SDS011;5293;51.464;-2.566;2022-11-02T17:49:03;16.57;;;2.93;;
10491;SDS011;5293;51.464;-2.566;2022-11-02T17:51:28;10.77;;;2.80;;
10491;SDS011;5293;51.464;-2.566;2022-11-02T17:53:54;13.33;;;2.67;;
10491;SDS011;5293;51.464;-2.566;2022-11-02T17:56:20;8.23;;;2.27;;
10491;SDS011;5293;51.464;-2.566;2022-11-02T17:58:45;16.13;;;2.73;;
10491;SDS011;5293;51.464;-2.566;2022-11-02T18:01:11;12.77;;;2.83;;